sensor_id;sensor_type;location;lat;lon;timestamp;pressure;altitude;pressure_sealevel;temperature;humidity
54042;BME280;41156;51.508;5.406;2022-12-07T00:00:18;101720.84;;;2.90;100.00
54042;BME280;41156;51.508;5.406;2022-12-07T00:03:18;101726.75;;;2.84;100.00
54042;BME280;41156;51.508;5.406;2022-12-07T00:06:19;101720.03;;;2.80;100.00
54042;BME280;41156;51.508;5.406;2022-12-07T00:09:20;101723.41;;;2.72;100.00
54042;BME280;41156;51.508;5.406;2022-12-07T00:12:20;101722.16;;;2.67;100.00
54042;BME280;41156;51.508;5.406;2022-12-07T00:15:21;101718.34;;;2.59;100.00
54042;BME280;41156;51.508;5.406;2022-12-07T00:18:21;101713.59;;;2.53;100.00
54042;BME280;41156;51.508;5.406;2022-12-07T00:21:24;101708.53;;;2.50;100.00
54042;BME280;41156;51.508;5.406;2022-12-07T00:24:24;101704.72;;;2.43;100.00
54042;BME280;41156;51.508;5.406;2022-12-07T00:27:26;101706.25;;;2.36;100.00
54042;BME280;41156;51.508;5.406;2022-12-07T00:30:27;101698.41;;;2.34;100.00
54042;BME280;41156;51.508;5.406;2022-12-07T00:33:27;101697.56;;;2.34;100.00
54042;BME280;41156;51.508;5.406;2022-12-07T00:36:28;101703.59;;;2.36;100.00
54042;BME280;41156;51.508;5.406;2022-12-07T00:39:29;101693.63;;;2.38;100.00
54042;BME280;41156;51.508;5.406;2022-12-07T00:42:29;101700.53;;;2.40;100.00
54042;BME280;41156;51.508;5.406;2022-12-07T00:45:29;101699.56;;;2.42;100.00
54042;BME280;41156;51.508;5.406;2022-12-07T00:48:30;101694.34;;;2.40;100.00
54042;BME280;41156;51.508;5.406;2022-12-07T00:51:30;101702.91;;;2.44;100.00
54042;BME280;41156;51.508;5.406;2022-12-07T00:54:30;101692.09;;;2.45;100.00
54042;BME280;41156;51.508;5.406;2022-12-07T00:57:31;101703.75;;;2.44;100.00
54042;BME280;41156;51.508;5.406;2022-12-07T01:00:31;101701.22;;;2.43;100.00
54042;BME280;41156;51.508;5.406;2022-12-07T01:03:33;101690.81;;;2.39;100.00
54042;BME280;41156;51.508;5.406;2022-12-07T01:06:33;101698.25;;;2.36;100.00
54042;BME280;41156;51.508;5.406;2022-12-07T01:09:34;101697.16;;;2.29;100.00
54042;BME280;41156;51.508;5.406;2022-12-07T01:12:34;101696.03;;;2.21;100.00
54042;BME280;41156;51.508;5.406;2022-12-07T01:15:39;101691.94;;;2.17;100.00
54042;BME280;41156;51.508;5.406;2022-12-07T01:18:40;101694.59;;;2.17;100.00
54042;BME280;41156;51.508;5.406;2022-12-07T01:21:41;101694.59;;;2.17;100.00
54042;BME280;41156;51.508;5.406;2022-12-07T01:24:42;101691.94;;;2.17;100.00
54042;BME280;41156;51.508;5.406;2022-12-07T01:27:42;101697.28;;;2.17;100.00
54042;BME280;41156;51.508;5.406;2022-12-07T01:30:42;101693.38;;;2.21;100.00
54042;BME280;41156;51.508;5.406;2022-12-07T01:33:45;101695.19;;;2.31;100.00
54042;BME280;41156;51.508;5.406;2022-12-07T01:36:46;101692.78;;;2.37;100.00
54042;BME280;41156;51.508;5.406;2022-12-07T01:39:50;101693.06;;;2.44;100.00
54042;BME280;41156;51.508;5.406;2022-12-07T01:42:50;101706.00;;;2.49;100.00
54042;BME280;41156;51.508;5.406;2022-12-07T01:45:50;101709.91;;;2.54;100.00
54042;BME280;41156;51.508;5.406;2022-12-07T01:48:50;101704.84;;;2.61;100.00
54042;BME280;41156;51.508;5.406;2022-12-07T01:51:54;101698.13;;;2.67;100.00
54042;BME280;41156;51.508;5.406;2022-12-07T01:55:00;101694.19;;;2.71;100.00
54042;BME280;41156;51.508;5.406;2022-12-07T01:58:01;101700.34;;;2.71;100.00
54042;BME280;41156;51.508;5.406;2022-12-07T02:01:01;101690.81;;;2.69;100.00
54042;BME280;41156;51.508;5.406;2022-12-07T02:04:02;101683.09;;;2.66;100.00
54042;BME280;41156;51.508;5.406;2022-12-07T02:07:04;101694.72;;;2.65;100.00
54042;BME280;41156;51.508;5.406;2022-12-07T02:10:31;101693.34;;;2.61;100.00
54042;BME280;41156;51.508;5.406;2022-12-07T02:13:35;101679.59;;;2.55;100.00
54042;BME280;41156;51.508;5.406;2022-12-07T02:17:05;101685.50;;;2.49;100.00
54042;BME280;41156;51.508;5.406;2022-12-07T02:26:44;101684.09;;;2.35;100.00
54042;BME280;41156;51.508;5.406;2022-12-07T02:30:18;101681.97;;;2.29;100.00
54042;BME280;41156;51.508;5.406;2022-12-07T02:33:32;101684.09;;;2.26;100.00
54042;BME280;41156;51.508;5.406;2022-12-07T02:36:39;101680.88;;;2.22;100.00
54042;BME280;41156;51.508;5.406;2022-12-07T02:39:47;101680.44;;;2.17;100.00
54042;BME280;41156;51.508;5.406;2022-12-07T02:42:55;101680.16;;;2.10;100.00
54042;BME280;41156;51.508;5.406;2022-12-07T02:46:02;101682.66;;;2.02;100.00
54042;BME280;41156;51.508;5.406;2022-12-07T02:49:36;101674.09;;;1.89;100.00
54042;BME280;41156;51.508;5.406;2022-12-07T02:52:37;101682.09;;;1.89;100.00
54042;BME280;41156;51.508;5.406;2022-12-07T02:55:40;101677.03;;;1.95;100.00
54042;BME280;41156;51.508;5.406;2022-12-07T02:59:02;101680.69;;;2.04;100.00
54042;BME280;41156;51.508;5.406;2022-12-07T03:02:28;101681.13;;;2.09;100.00
54042;BME280;41156;51.508;5.406;2022-12-07T03:05:41;101687.28;;;2.10;100.00
54042;BME280;41156;51.508;5.406;2022-12-07T03:09:11;101683.78;;;2.09;100.00
54042;BME280;41156;51.508;5.406;2022-12-07T03:12:18;101683.78;;;2.09;100.00
54042;BME280;41156;51.508;5.406;2022-12-07T03:15:31;101685.91;;;2.06;100.00
54042;BME280;41156;51.508;5.406;2022-12-07T03:18:36;101684.63;;;2.00;100.00
54042;BME280;41156;51.508;5.406;2022-12-07T03:21:40;101681.81;;;1.92;100.00
54042;BME280;41156;51.508;5.406;2022-12-07T03:24:46;101682.09;;;1.89;100.00
54042;BME280;41156;51.508;5.406;2022-12-07T03:31:00;101669.31;;;1.92;100.00
54042;BME280;41156;51.508;5.406;2022-12-07T03:34:16;101670.72;;;1.87;100.00
54042;BME280;41156;51.508;5.406;2022-12-07T03:37:24;101673.22;;;1.88;100.00
54042;BME280;41156;51.508;5.406;2022-12-07T03:40:49;101683.91;;;1.98;100.00
54042;BME280;41156;51.508;5.406;2022-12-07T03:43:51;101674.41;;;2.05;100.00
54042;BME280;41156;51.508;5.406;2022-12-07T03:47:13;101675.66;;;2.11;100.00
54042;BME280;41156;51.508;5.406;2022-12-07T03:50:29;101668.06;;;2.16;100.00
54042;BME280;41156;51.508;5.406;2022-12-07T03:53:43;101677.50;;;2.20;100.00
54042;BME280;41156;51.508;5.406;2022-12-07T03:56:46;101675.41;;;2.24;100.00
54042;BME280;41156;51.508;5.406;2022-12-07T03:59:47;101677.47;;;2.30;100.00
54042;BME280;41156;51.508;5.406;2022-12-07T04:02:51;101669.94;;;2.35;100.00
54042;BME280;41156;51.508;5.406;2022-12-07T04:05:52;101671.44;;;2.37;100.00
54042;BME280;41156;51.508;5.406;2022-12-07T04:08:52;101670.19;;;2.42;100.00
54042;BME280;41156;51.508;5.406;2022-12-07T04:11:53;101668.09;;;2.45;100.00
54042;BME280;41156;51.508;5.406;2022-12-07T04:14:53;101670.31;;;2.50;100.00
54042;BME280;41156;51.508;5.406;2022-12-07T04:17:53;101667.22;;;2.54;100.00
54042;BME280;41156;51.508;5.406;2022-12-07T04:20:54;101666.94;;;2.57;100.00
54042;BME280;41156;51.508;5.406;2022-12-07T04:23:55;101672.84;;;2.61;100.00
54042;BME280;41156;51.508;5.406;2022-12-07T04:26:55;101673.38;;;2.65;100.00
54042;BME280;41156;51.508;5.406;2022-12-07T04:29:55;101667.06;;;2.66;100.00
54042;BME280;41156;51.508;5.406;2022-12-07T04:32:56;101661.59;;;2.67;100.00
54042;BME280;41156;51.508;5.406;2022-12-07T04:35:56;101656.25;;;2.67;100.00
54042;BME280;41156;51.508;5.406;2022-12-07T04:38:56;101656.81;;;2.71;100.00
54042;BME280;41156;51.508;5.406;2022-12-07T04:41:57;101656.38;;;2.75;100.00
54042;BME280;41156;51.508;5.406;2022-12-07T04:44:58;101647.41;;;2.76;100.00
54042;BME280;41156;51.508;5.406;2022-12-07T04:47:58;101653.28;;;2.80;100.00
54042;BME280;41156;51.508;5.406;2022-12-07T04:50:59;101654.00;;;2.82;100.00
54042;BME280;41156;51.508;5.406;2022-12-07T04:53:59;101654.81;;;2.83;100.00
54042;BME280;41156;51.508;5.406;2022-12-07T04:56:59;101660.00;;;2.84;100.00
54042;BME280;41156;51.508;5.406;2022-12-07T05:00:00;101655.69;;;2.83;100.00
54042;BME280;41156;51.508;5.406;2022-12-07T05:03:00;101648.66;;;2.82;100.00
54042;BME280;41156;51.508;5.406;2022-12-07T05:06:00;101647.81;;;2.82;100.00
54042;BME280;41156;51.508;5.406;2022-12-07T05:09:01;101649.50;;;2.73;100.00
54042;BME280;41156;51.508;5.406;2022-12-07T05:12:01;101641.09;;;2.68;100.00
54042;BME280;41156;51.508;5.406;2022-12-07T05:15:02;101638.56;;;2.66;100.00
54042;BME280;41156;51.508;5.406;2022-12-07T05:18:02;101645.72;;;2.66;100.00
54042;BME280;41156;51.508;5.406;2022-12-07T05:21:03;101648.41;;;2.66;100.00
54042;BME280;41156;51.508;5.406;2022-12-07T05:24:04;101644.75;;;2.67;100.00
54042;BME280;41156;51.508;5.406;2022-12-07T05:27:05;101637.72;;;2.66;100.00
54042;BME280;41156;51.508;5.406;2022-12-07T05:30:06;101644.34;;;2.62;100.00
54042;BME280;41156;51.508;5.406;2022-12-07T05:33:06;101649.22;;;2.66;100.00
54042;BME280;41156;51.508;5.406;2022-12-07T05:36:07;101638.56;;;2.66;100.00
54042;BME280;41156;51.508;5.406;2022-12-07T05:39:07;101648.69;;;2.63;100.00
54042;BME280;41156;51.508;5.406;2022-12-07T05:42:10;101649.25;;;2.56;100.00
54042;BME280;41156;51.508;5.406;2022-12-07T05:45:13;101630.47;;;2.48;100.00
54042;BME280;41156;51.508;5.406;2022-12-07T05:48:13;101629.59;;;2.38;100.00
54042;BME280;41156;51.508;5.406;2022-12-07T05:51:13;101637.78;;;2.27;100.00
54042;BME280;41156;51.508;5.406;2022-12-07T05:54:13;101636.06;;;2.16;100.00
54042;BME280;41156;51.508;5.406;2022-12-07T05:57:14;101626.53;;;2.03;100.00
54042;BME280;41156;51.508;5.406;2022-12-07T06:00:14;101629.19;;;1.94;100.00
54042;BME280;41156;51.508;5.406;2022-12-07T06:03:15;101630.88;;;1.85;100.00
54042;BME280;41156;51.508;5.406;2022-12-07T06:06:15;101637.03;;;1.76;100.00
54042;BME280;41156;51.508;5.406;2022-12-07T06:09:15;101642.75;;;1.71;100.00
54042;BME280;41156;51.508;5.406;2022-12-07T06:12:16;101641.63;;;1.64;100.00
54042;BME280;41156;51.508;5.406;2022-12-07T06:15:37;101636.97;;;1.56;100.00
54042;BME280;41156;51.508;5.406;2022-12-07T06:18:38;101644.66;;;1.50;100.00
54042;BME280;41156;51.508;5.406;2022-12-07T06:21:38;101639.91;;;1.43;100.00
54042;BME280;41156;51.508;5.406;2022-12-07T06:24:39;101646.06;;;1.44;100.00
54042;BME280;41156;51.508;5.406;2022-12-07T06:27:39;101641.69;;;1.43;100.00
54042;BME280;41156;51.508;5.406;2022-12-07T06:30:40;101639.78;;;1.45;100.00
54042;BME280;41156;51.508;5.406;2022-12-07T06:33:40;101650.00;;;1.50;100.00
54042;BME280;41156;51.508;5.406;2022-12-07T06:36:41;101644.13;;;1.56;100.00
54042;BME280;41156;51.508;5.406;2022-12-07T06:39:41;101650.47;;;1.64;100.00
54042;BME280;41156;51.508;5.406;2022-12-07T06:42:42;101641.09;;;1.70;100.00
54042;BME280;41156;51.508;5.406;2022-12-07T06:45:42;101655.53;;;1.77;100.00
54042;BME280;41156;51.508;5.406;2022-12-07T06:48:42;101646.75;;;1.87;100.00
54042;BME280;41156;51.508;5.406;2022-12-07T06:51:43;101645.31;;;1.92;100.00
54042;BME280;41156;51.508;5.406;2022-12-07T06:54:44;101645.63;;;1.99;100.00
54042;BME280;41156;51.508;5.406;2022-12-07T06:57:45;101644.34;;;2.03;100.00
54042;BME280;41156;51.508;5.406;2022-12-07T07:00:47;101645.34;;;2.02;100.00
54042;BME280;41156;51.508;5.406;2022-12-07T07:03:48;101640.84;;;2.02;100.00
54042;BME280;41156;51.508;5.406;2022-12-07T07:06:48;101642.69;;;2.02;100.00
54042;BME280;41156;51.508;5.406;2022-12-07T07:09:49;101643.66;;;2.01;100.00
54042;BME280;41156;51.508;5.406;2022-12-07T07:12:49;101661.75;;;1.97;100.00
54042;BME280;41156;51.508;5.406;2022-12-07T07:15:49;101656.00;;;1.92;100.00
54042;BME280;41156;51.508;5.406;2022-12-07T07:18:50;101655.16;;;1.92;100.00
54042;BME280;41156;51.508;5.406;2022-12-07T07:21:50;101653.72;;;1.88;100.00
54042;BME280;41156;51.508;5.406;2022-12-07T07:24:50;101651.19;;;1.86;100.00
54042;BME280;41156;51.508;5.406;2022-12-07T07:27:51;101654.88;;;1.85;100.00
54042;BME280;41156;51.508;5.406;2022-12-07T07:30:51;101658.22;;;1.87;100.00
54042;BME280;41156;51.508;5.406;2022-12-07T07:33:51;101650.94;;;1.89;100.00
54042;BME280;41156;51.508;5.406;2022-12-07T07:36:52;101657.81;;;1.92;100.00
54042;BME280;41156;51.508;5.406;2022-12-07T07:39:52;101654.84;;;1.95;100.00
54042;BME280;41156;51.508;5.406;2022-12-07T07:42:53;101659.09;;;1.97;100.00
54042;BME280;41156;51.508;5.406;2022-12-07T07:45:54;101659.91;;;1.98;100.00
54042;BME280;41156;51.508;5.406;2022-12-07T07:48:54;101658.94;;;1.99;100.00
54042;BME280;41156;51.508;5.406;2022-12-07T07:51:54;101664.28;;;1.99;100.00
54042;BME280;41156;51.508;5.406;2022-12-07T07:54:55;101663.00;;;2.03;100.00
54042;BME280;41156;51.508;5.406;2022-12-07T07:57:55;101660.75;;;2.08;100.00
54042;BME280;41156;51.508;5.406;2022-12-07T08:00:55;101659.09;;;2.17;100.00
54042;BME280;41156;51.508;5.406;2022-12-07T08:03:56;101656.84;;;2.12;100.00
54042;BME280;41156;51.508;5.406;2022-12-07T08:06:56;101665.13;;;2.09;100.00
54042;BME280;41156;51.508;5.406;2022-12-07T08:09:57;101659.22;;;2.06;100.00
54042;BME280;41156;51.508;5.406;2022-12-07T08:12:58;101664.97;;;2.01;100.00
54042;BME280;41156;51.508;5.406;2022-12-07T08:16:17;101665.81;;;1.92;100.00
54042;BME280;41156;51.508;5.406;2022-12-07T08:19:17;101668.06;;;1.87;100.00
54042;BME280;41156;51.508;5.406;2022-12-07T08:22:18;101675.59;;;1.81;100.00
54042;BME280;41156;51.508;5.406;2022-12-07T08:25:19;101676.88;;;1.77;100.00
54042;BME280;41156;51.508;5.406;2022-12-07T08:28:19;101687.38;;;1.79;100.00
54042;BME280;41156;51.508;5.406;2022-12-07T08:31:19;101684.06;;;1.87;100.00
54042;BME280;41156;51.508;5.406;2022-12-07T08:34:20;101679.97;;;1.92;100.00
54042;BME280;41156;51.508;5.406;2022-12-07T08:37:20;101688.97;;;2.01;100.00
54042;BME280;41156;51.508;5.406;2022-12-07T08:40:20;101685.50;;;2.10;100.00
54042;BME280;41156;51.508;5.406;2022-12-07T08:43:21;101690.69;;;2.21;100.00
54042;BME280;41156;51.508;5.406;2022-12-07T08:49:36;101694.19;;;2.51;100.00
54042;BME280;41156;51.508;5.406;2022-12-07T08:52:39;101692.66;;;2.68;100.00
54042;BME280;41156;51.508;5.406;2022-12-07T08:55:41;101688.97;;;2.79;100.00
54042;BME280;41156;51.508;5.406;2022-12-07T08:58:41;101687.41;;;2.86;100.00
54042;BME280;41156;51.508;5.406;2022-12-07T09:01:42;101677.84;;;2.93;100.00
54042;BME280;41156;51.508;5.406;2022-12-07T09:04:42;101679.22;;;2.97;100.00
54042;BME280;41156;51.508;5.406;2022-12-07T09:07:48;101673.31;;;3.04;100.00
54042;BME280;41156;51.508;5.406;2022-12-07T09:10:50;101674.56;;;3.09;100.00
54042;BME280;41156;51.508;5.406;2022-12-07T09:13:50;101674.81;;;3.16;100.00
54042;BME280;41156;51.508;5.406;2022-12-07T09:16:50;101666.22;;;3.22;100.00
54042;BME280;41156;51.508;5.406;2022-12-07T09:19:51;101666.34;;;3.30;100.00
54042;BME280;41156;51.508;5.406;2022-12-07T09:22:51;101673.78;;;3.37;100.00
54042;BME280;41156;51.508;5.406;2022-12-07T09:25:51;101670.34;;;3.44;100.00
54042;BME280;41156;51.508;5.406;2022-12-07T09:28:51;101672.88;;;3.46;100.00
54042;BME280;41156;51.508;5.406;2022-12-07T09:31:52;101673.03;;;3.44;100.00
54042;BME280;41156;51.508;5.406;2022-12-07T09:34:53;101676.75;;;3.33;100.00
54042;BME280;41156;51.508;5.406;2022-12-07T09:37:53;101675.78;;;3.25;100.00
54042;BME280;41156;51.508;5.406;2022-12-07T09:40:54;101680.16;;;3.16;100.00
54042;BME280;41156;51.508;5.406;2022-12-07T09:44:02;101678.25;;;3.08;100.00
54042;BME280;41156;51.508;5.406;2022-12-07T09:47:03;101676.69;;;3.06;100.00
54042;BME280;41156;51.508;5.406;2022-12-07T09:50:07;101677.22;;;3.09;100.00
54042;BME280;41156;51.508;5.406;2022-12-07T09:53:17;101677.19;;;3.19;100.00
54042;BME280;41156;51.508;5.406;2022-12-07T09:56:19;101674.22;;;3.32;100.00
54042;BME280;41156;51.508;5.406;2022-12-07T09:59:19;101670.75;;;3.49;100.00
54042;BME280;41156;51.508;5.406;2022-12-07T10:02:34;101672.19;;;3.72;100.00
54042;BME280;41156;51.508;5.406;2022-12-07T10:05:37;101667.00;;;3.88;100.00
54042;BME280;41156;51.508;5.406;2022-12-07T10:08:39;101669.09;;;3.94;100.00
54042;BME280;41156;51.508;5.406;2022-12-07T10:12:07;101661.25;;;4.11;100.00
54042;BME280;41156;51.508;5.406;2022-12-07T10:15:09;101656.50;;;4.22;100.00
54042;BME280;41156;51.508;5.406;2022-12-07T10:18:20;101648.91;;;4.36;100.00
54042;BME280;41156;51.508;5.406;2022-12-07T10:21:26;101649.59;;;4.56;100.00
54042;BME280;41156;51.508;5.406;2022-12-07T10:24:26;101654.09;;;4.73;100.00
54042;BME280;41156;51.508;5.406;2022-12-07T10:27:31;101654.44;;;4.78;100.00
54042;BME280;41156;51.508;5.406;2022-12-07T10:30:32;101644.41;;;4.80;100.00
54042;BME280;41156;51.508;5.406;2022-12-07T10:33:49;101639.22;;;4.79;100.00
54042;BME280;41156;51.508;5.406;2022-12-07T10:36:50;101637.16;;;4.73;100.00
54042;BME280;41156;51.508;5.406;2022-12-07T10:39:53;101631.94;;;4.63;100.00
54042;BME280;41156;51.508;5.406;2022-12-07T10:46:30;101627.50;;;4.54;100.00
54042;BME280;41156;51.508;5.406;2022-12-07T10:59:21;101617.16;;;5.11;100.00
54042;BME280;41156;51.508;5.406;2022-12-07T11:02:42;101613.69;;;5.27;100.00
54042;BME280;41156;51.508;5.406;2022-12-07T11:05:53;101607.53;;;5.35;100.00
54042;BME280;41156;51.508;5.406;2022-12-07T11:09:11;101610.25;;;5.43;100.00
54042;BME280;41156;51.508;5.406;2022-12-07T11:19:24;101595.38;;;5.57;100.00
54042;BME280;41156;51.508;5.406;2022-12-07T11:22:46;101600.91;;;5.64;100.00
54042;BME280;41156;51.508;5.406;2022-12-07T11:26:34;101602.63;;;5.73;100.00
54042;BME280;41156;51.508;5.406;2022-12-07T11:33:49;101588.53;;;5.79;100.00
54042;BME280;41156;51.508;5.406;2022-12-07T11:36:40;101580.50;;;5.87;100.00
54042;BME280;41156;51.508;5.406;2022-12-07T11:39:50;101582.53;;;5.93;100.00
54042;BME280;41156;51.508;5.406;2022-12-07T11:42:58;101580.38;;;5.97;100.00
54042;BME280;41156;51.508;5.406;2022-12-07T11:46:04;101578.88;;;6.03;100.00
54042;BME280;41156;51.508;5.406;2022-12-07T11:53:22;101577.84;;;5.96;100.00
54042;BME280;41156;51.508;5.406;2022-12-07T11:56:00;101580.53;;;5.96;100.00
54042;BME280;41156;51.508;5.406;2022-12-07T11:59:10;101577.81;;;5.87;100.00
54042;BME280;41156;51.508;5.406;2022-12-07T12:02:16;101566.25;;;5.79;100.00
54042;BME280;41156;51.508;5.406;2022-12-07T12:05:19;101559.34;;;5.68;100.00
54042;BME280;41156;51.508;5.406;2022-12-07T12:08:27;101560.19;;;5.60;100.00
54042;BME280;41156;51.508;5.406;2022-12-07T12:18:53;101553.81;;;5.45;100.00
54042;BME280;41156;51.508;5.406;2022-12-07T12:22:10;101546.47;;;5.63;100.00
54042;BME280;41156;51.508;5.406;2022-12-07T12:25:21;101545.81;;;5.86;100.00
54042;BME280;41156;51.508;5.406;2022-12-07T12:32:07;101528.41;;;6.23;100.00
54042;BME280;41156;51.508;5.406;2022-12-07T12:35:37;101519.78;;;6.52;100.00
54042;BME280;41156;51.508;5.406;2022-12-07T12:41:54;101520.09;;;6.65;100.00
54042;BME280;41156;51.508;5.406;2022-12-07T12:45:21;101518.78;;;6.53;100.00
54042;BME280;41156;51.508;5.406;2022-12-07T12:48:29;101520.13;;;6.41;100.00
54042;BME280;41156;51.508;5.406;2022-12-07T12:51:38;101516.16;;;6.28;100.00
54042;BME280;41156;51.508;5.406;2022-12-07T12:54:59;101506.59;;;6.18;100.00
54042;BME280;41156;51.508;5.406;2022-12-07T12:58:26;101496.72;;;6.10;100.00
54042;BME280;41156;51.508;5.406;2022-12-07T13:01:42;101506.09;;;5.98;100.00
54042;BME280;41156;51.508;5.406;2022-12-07T13:08:17;101497.34;;;5.71;100.00
54042;BME280;41156;51.508;5.406;2022-12-07T13:11:41;101497.19;;;5.64;100.00
54042;BME280;41156;51.508;5.406;2022-12-07T13:14:54;101491.13;;;5.54;100.00
54042;BME280;41156;51.508;5.406;2022-12-07T13:17:57;101490.28;;;5.45;100.00
54042;BME280;41156;51.508;5.406;2022-12-07T13:21:00;101494.66;;;5.38;100.00
54042;BME280;41156;51.508;5.406;2022-12-07T13:24:06;101487.94;;;5.34;100.00
54042;BME280;41156;51.508;5.406;2022-12-07T13:27:09;101489.97;;;5.40;100.00
54042;BME280;41156;51.508;5.406;2022-12-07T13:30:17;101484.78;;;5.47;100.00
54042;BME280;41156;51.508;5.406;2022-12-07T13:33:18;101480.75;;;5.59;100.00
54042;BME280;41156;51.508;5.406;2022-12-07T13:36:22;101480.09;;;5.73;100.00
54042;BME280;41156;51.508;5.406;2022-12-07T13:39:25;101473.03;;;5.89;100.00
54042;BME280;41156;51.508;5.406;2022-12-07T13:42:31;101459.50;;;5.99;100.00
54042;BME280;41156;51.508;5.406;2022-12-07T13:45:33;101465.03;;;5.97;100.00
54042;BME280;41156;51.508;5.406;2022-12-07T13:48:50;101455.13;;;5.98;100.00
54042;BME280;41156;51.508;5.406;2022-12-07T13:51:51;101454.44;;;5.87;100.00
54042;BME280;41156;51.508;5.406;2022-12-07T13:58:01;101451.09;;;5.77;100.00
54042;BME280;41156;51.508;5.406;2022-12-07T14:01:02;101453.63;;;5.70;100.00
54042;BME280;41156;51.508;5.406;2022-12-07T14:07:27;101452.44;;;5.56;100.00
54042;BME280;41156;51.508;5.406;2022-12-07T14:10:34;101446.75;;;5.51;100.00
54042;BME280;41156;51.508;5.406;2022-12-07T14:13:37;101445.06;;;5.50;100.00
54042;BME280;41156;51.508;5.406;2022-12-07T14:16:39;101444.22;;;5.50;100.00
54042;BME280;41156;51.508;5.406;2022-12-07T14:19:46;101435.16;;;5.51;100.00
54042;BME280;41156;51.508;5.406;2022-12-07T14:22:55;101426.97;;;5.52;100.00
54042;BME280;41156;51.508;5.406;2022-12-07T14:26:07;101435.34;;;5.57;100.00
54042;BME280;41156;51.508;5.406;2022-12-07T14:32:28;101426.78;;;5.54;100.00
54042;BME280;41156;51.508;5.406;2022-12-07T14:35:31;101423.94;;;5.47;100.00
54042;BME280;41156;51.508;5.406;2022-12-07T14:38:31;101427.28;;;5.41;100.00
54042;BME280;41156;51.508;5.406;2022-12-07T14:41:31;101425.63;;;5.32;100.00
54042;BME280;41156;51.508;5.406;2022-12-07T14:44:50;101414.72;;;5.25;100.00
54042;BME280;41156;51.508;5.406;2022-12-07T14:47:50;101423.75;;;5.16;100.00
54042;BME280;41156;51.508;5.406;2022-12-07T14:50:52;101422.41;;;5.12;100.00
54042;BME280;41156;51.508;5.406;2022-12-07T14:53:53;101424.59;;;5.08;100.00
54042;BME280;41156;51.508;5.406;2022-12-07T14:56:53;101424.41;;;5.02;100.00
54042;BME280;41156;51.508;5.406;2022-12-07T14:59:53;101420.53;;;4.96;100.00
54042;BME280;41156;51.508;5.406;2022-12-07T15:02:54;101416.84;;;4.97;100.00
54042;BME280;41156;51.508;5.406;2022-12-07T15:05:55;101419.84;;;4.94;100.00
54042;BME280;41156;51.508;5.406;2022-12-07T15:08:55;101412.13;;;4.91;100.00
54042;BME280;41156;51.508;5.406;2022-12-07T15:11:55;101406.09;;;4.80;100.00
54042;BME280;41156;51.508;5.406;2022-12-07T15:14:56;101414.28;;;4.79;100.00
54042;BME280;41156;51.508;5.406;2022-12-07T15:17:56;101409.72;;;4.71;100.00
54042;BME280;41156;51.508;5.406;2022-12-07T15:20:56;101403.56;;;4.71;100.00
54042;BME280;41156;51.508;5.406;2022-12-07T15:23:57;101407.88;;;4.63;100.00
54042;BME280;41156;51.508;5.406;2022-12-07T15:26:57;101408.38;;;4.59;100.00
54042;BME280;41156;51.508;5.406;2022-12-07T15:29:57;101406.31;;;4.53;100.00
54042;BME280;41156;51.508;5.406;2022-12-07T15:32:57;101409.34;;;4.50;100.00
54042;BME280;41156;51.508;5.406;2022-12-07T15:35:58;101404.31;;;4.47;100.00
54042;BME280;41156;51.508;5.406;2022-12-07T15:38:59;101404.63;;;4.43;100.00
54042;BME280;41156;51.508;5.406;2022-12-07T15:41:59;101403.09;;;4.41;100.00
54042;BME280;41156;51.508;5.406;2022-12-07T15:45:00;101401.13;;;4.43;100.00
54042;BME280;41156;51.508;5.406;2022-12-07T15:48:06;101402.28;;;4.40;100.00
54042;BME280;41156;51.508;5.406;2022-12-07T15:51:07;101397.06;;;4.39;100.00
54042;BME280;41156;51.508;5.406;2022-12-07T15:54:23;101394.56;;;4.37;100.00
54042;BME280;41156;51.508;5.406;2022-12-07T15:57:24;101393.72;;;4.37;100.00
54042;BME280;41156;51.508;5.406;2022-12-07T16:00:24;101390.53;;;4.33;100.00
54042;BME280;41156;51.508;5.406;2022-12-07T16:03:26;101386.38;;;4.39;100.00
54042;BME280;41156;51.508;5.406;2022-12-07T16:06:27;101381.16;;;4.29;100.00
54042;BME280;41156;51.508;5.406;2022-12-07T16:09:27;101380.78;;;4.24;100.00
54042;BME280;41156;51.508;5.406;2022-12-07T16:12:27;101376.78;;;4.20;100.00
54042;BME280;41156;51.508;5.406;2022-12-07T16:15:28;101377.09;;;4.17;100.00
54042;BME280;41156;51.508;5.406;2022-12-07T16:18:28;101378.22;;;4.14;100.00
54042;BME280;41156;51.508;5.406;2022-12-07T16:21:28;101374.06;;;4.12;100.00
54042;BME280;41156;51.508;5.406;2022-12-07T16:24:29;101370.88;;;4.08;100.00
54042;BME280;41156;51.508;5.406;2022-12-07T16:27:29;101374.69;;;4.05;100.00
54042;BME280;41156;51.508;5.406;2022-12-07T16:30:29;101372.31;;;4.02;100.00
54042;BME280;41156;51.508;5.406;2022-12-07T16:33:29;101373.34;;;4.01;100.00
54042;BME280;41156;51.508;5.406;2022-12-07T16:36:30;101368.66;;;4.03;100.00
54042;BME280;41156;51.508;5.406;2022-12-07T16:39:32;101369.66;;;4.02;100.00
54042;BME280;41156;51.508;5.406;2022-12-07T16:42:33;101366.97;;;4.02;100.00
54042;BME280;41156;51.508;5.406;2022-12-07T16:45:36;101361.31;;;4.05;100.00
54042;BME280;41156;51.508;5.406;2022-12-07T16:48:37;101360.47;;;4.05;100.00
54042;BME280;41156;51.508;5.406;2022-12-07T16:51:38;101359.97;;;4.01;100.00
54042;BME280;41156;51.508;5.406;2022-12-07T16:54:39;101357.28;;;4.01;100.00
54042;BME280;41156;51.508;5.406;2022-12-07T16:57:39;101346.75;;;4.00;100.00
54042;BME280;41156;51.508;5.406;2022-12-07T17:00:41;101350.25;;;4.00;100.00
54042;BME280;41156;51.508;5.406;2022-12-07T17:03:42;101354.78;;;4.00;100.00
54042;BME280;41156;51.508;5.406;2022-12-07T17:06:42;101347.75;;;3.99;100.00
54042;BME280;41156;51.508;5.406;2022-12-07T17:09:42;101343.22;;;3.99;100.00